createdAt,value
2022-10-11T00:01:41.391Z,102622.50
2022-10-11T00:04:08.073Z,102624.06
2022-10-11T00:06:34.696Z,102611.66
2022-10-11T00:09:01.276Z,102624.88
2022-10-11T00:11:27.795Z,102582.75
2022-10-11T00:13:54.312Z,102634.22
2022-10-11T00:16:20.864Z,102633.34
2022-10-11T00:18:47.395Z,102628.88
2022-10-11T00:21:15.191Z,102622.75
2022-10-11T00:23:42.909Z,102599.97
2022-10-11T00:26:11.538Z,102637.38
2022-10-11T00:28:38.907Z,102639.03
2022-10-11T00:31:10.833Z,102630.22
2022-10-11T00:33:37.719Z,102630.19
2022-10-11T00:36:04.708Z,102620.34
2022-10-11T00:38:32.181Z,102609.91
2022-10-11T00:40:59.660Z,102622.19
2022-10-11T00:43:28.977Z,102636.91
2022-10-11T00:45:55.413Z,102641.19
2022-10-11T00:48:27.639Z,102581.72
2022-10-11T00:50:58.283Z,102609.56
2022-10-11T00:53:26.070Z,102609.56
2022-10-11T00:56:04.501Z,102634.00
2022-10-11T00:58:35.067Z,102632.16
2022-10-11T01:01:02.260Z,102640.53
2022-10-11T01:03:30.860Z,102608.22
2022-10-11T01:05:57.459Z,102634.53
2022-10-11T01:08:25.571Z,102619.59
2022-10-11T01:10:52.153Z,102609.72
2022-10-11T01:13:30.897Z,102634.34
2022-10-11T01:16:23.907Z,102615.72
2022-10-11T01:19:26.316Z,102640.16
2022-10-11T01:21:57.598Z,102650.38
2022-10-11T01:24:49.106Z,102644.19
2022-10-11T01:27:38.349Z,102643.28
2022-10-11T01:30:19.962Z,102650.09
2022-10-11T01:33:05.109Z,102638.00
2022-10-11T01:35:34.555Z,102647.41
2022-10-11T01:38:34.964Z,102636.03
2022-10-11T01:41:13.700Z,102645.50
2022-10-11T01:43:42.530Z,102647.16
2022-10-11T01:46:10.317Z,102643.59
2022-10-11T01:48:57.880Z,102632.19
2022-10-11T01:51:29.782Z,102634.00
2022-10-11T01:54:05.362Z,102640.91
2022-10-11T01:56:53.668Z,102637.41
2022-10-11T01:59:47.704Z,102639.91
2022-10-11T02:02:17.140Z,102636.47
2022-10-11T02:04:50.492Z,102625.13
2022-10-11T02:07:33.590Z,102618.22
2022-10-11T02:10:32.405Z,102624.19
2022-10-11T02:13:08.156Z,102624.09
2022-10-11T02:15:39.131Z,102614.50
2022-10-11T02:18:10.660Z,102613.63
2022-10-11T02:20:39.634Z,102614.28
2022-10-11T02:23:12.098Z,102621.22
2022-10-11T02:25:38.995Z,102613.94
2022-10-11T02:28:12.413Z,102625.38
2022-10-11T02:30:41.755Z,102621.03
2022-10-11T02:33:13.066Z,102622.66
2022-10-11T02:35:44.343Z,102620.81
2022-10-11T02:38:27.598Z,102627.72
2022-10-11T02:41:01.881Z,102605.06
2022-10-11T02:43:31.947Z,102624.22
2022-10-11T02:46:03.520Z,102631.00
2022-10-11T02:48:32.325Z,102625.63
2022-10-11T02:50:59.277Z,102585.50
2022-10-11T02:53:26.993Z,102615.31
2022-10-11T02:55:54.851Z,102616.88
2022-10-11T02:58:22.978Z,102608.09
2022-10-11T03:00:50.094Z,102620.28
2022-10-11T03:03:16.604Z,102603.66
2022-10-11T03:05:44.072Z,102592.19
2022-10-11T03:08:12.706Z,102614.03
2022-10-11T03:10:41.408Z,102618.31
2022-10-11T03:13:08.259Z,102622.66
2022-10-11T03:15:35.184Z,102621.81
2022-10-11T03:18:01.656Z,102604.59
2022-10-11T03:20:28.178Z,102598.13
2022-10-11T03:22:54.736Z,102610.97
2022-10-11T03:25:21.278Z,102612.78
2022-10-11T03:27:47.795Z,102609.19
2022-10-11T03:30:18.395Z,102616.22
2022-10-11T03:32:45.506Z,102608.44
2022-10-11T03:35:12.075Z,102620.28
2022-10-11T03:37:38.586Z,102594.06
2022-10-11T03:40:06.489Z,102609.94
2022-10-11T03:42:32.973Z,102586.13
2022-10-11T03:45:01.702Z,102608.78
2022-10-11T03:47:28.231Z,102607.13
2022-10-11T03:49:54.724Z,102610.53
2022-10-11T03:52:21.289Z,102608.59
2022-10-11T03:54:48.064Z,102619.78
2022-10-11T03:57:14.999Z,102616.38
2022-10-11T03:59:41.592Z,102583.88
2022-10-11T04:02:08.275Z,102620.47
2022-10-11T04:04:35.098Z,102616.88
2022-10-11T04:07:01.717Z,102616.75
2022-10-11T04:09:28.279Z,102625.31
2022-10-11T04:11:54.769Z,102621.81
2022-10-11T04:14:21.332Z,102623.56
2022-10-11T04:16:47.891Z,102621.63
2022-10-11T04:19:14.471Z,102626.84
2022-10-11T04:21:41.064Z,102620.47
2022-10-11T04:24:07.758Z,102620.44
2022-10-11T04:26:34.297Z,102624.84
2022-10-11T04:29:00.833Z,102614.31
2022-10-11T04:31:27.330Z,102633.41
2022-10-11T04:33:53.893Z,102635.94
2022-10-11T04:36:20.412Z,102635.16
2022-10-11T04:38:46.894Z,102619.59
2022-10-11T04:41:14.180Z,102629.91
2022-10-11T04:43:40.962Z,102633.31
2022-10-11T04:46:08.681Z,102621.13
2022-10-11T04:48:36.310Z,102636.69
2022-10-11T04:51:02.814Z,102641.72
2022-10-11T04:53:29.465Z,102636.97
2022-10-11T04:56:02.425Z,102658.63
2022-10-11T04:58:30.988Z,102650.16
2022-10-11T05:00:58.487Z,102646.53
2022-10-11T05:03:25.976Z,102633.06
2022-10-11T05:05:53.128Z,102658.47
2022-10-11T05:08:20.581Z,102661.75
2022-10-11T05:11:08.587Z,102648.31
2022-10-11T05:13:36.166Z,102663.50
2022-10-11T05:16:07.151Z,102661.63
2022-10-11T05:18:37.248Z,102638.56
2022-10-11T05:21:15.987Z,102670.91
2022-10-11T05:23:42.882Z,102654.34
2022-10-11T05:26:09.892Z,102658.72
2022-10-11T05:28:36.592Z,102668.16
2022-10-11T05:31:03.446Z,102672.41
2022-10-11T05:33:30.085Z,102680.16
2022-10-11T05:35:56.701Z,102666.16
2022-10-11T05:38:23.754Z,102676.59
2022-10-11T05:40:50.653Z,102674.69
2022-10-11T05:43:17.181Z,102676.34
2022-10-11T05:45:44.668Z,102645.59
2022-10-11T05:48:11.575Z,102671.06
2022-10-11T05:50:38.851Z,102683.25
2022-10-11T05:53:06.253Z,102692.47
2022-10-11T05:55:40.979Z,102683.13
2022-10-11T05:58:08.819Z,102676.09
2022-10-11T06:00:36.980Z,102686.34
2022-10-11T06:03:05.061Z,102697.63
2022-10-11T06:05:31.869Z,102675.16
2022-10-11T06:07:58.892Z,102688.97
2022-10-11T06:10:26.181Z,102698.44
2022-10-11T06:12:52.966Z,102689.78
2022-10-11T06:15:19.725Z,102666.94
2022-10-11T06:17:47.069Z,102694.09
2022-10-11T06:20:13.683Z,102653.63
2022-10-11T06:22:40.315Z,102694.94
2022-10-11T06:25:07.584Z,102684.31
2022-10-11T06:27:34.215Z,102693.19
2022-10-11T06:30:00.932Z,102686.28
2022-10-11T06:32:27.547Z,102669.47
2022-10-11T06:34:54.120Z,102691.47
2022-10-11T06:37:20.648Z,102680.00
2022-10-11T06:39:47.157Z,102701.00
2022-10-11T06:42:13.768Z,102687.78
2022-10-11T06:44:40.323Z,102677.22
2022-10-11T06:47:08.241Z,102719.38
2022-10-11T06:49:34.917Z,102696.44
2022-10-11T06:52:01.606Z,102723.59
2022-10-11T06:54:28.195Z,102726.31
2022-10-11T06:56:54.682Z,102726.44
2022-10-11T06:59:21.339Z,102729.94
2022-10-11T07:01:47.857Z,102729.00
2022-10-11T07:04:14.359Z,102724.69
2022-10-11T07:06:41.619Z,102713.25
2022-10-11T07:09:08.962Z,102740.53
2022-10-11T07:11:35.755Z,102736.16
2022-10-11T07:14:07.594Z,102732.81
2022-10-11T07:16:36.279Z,102731.94
2022-10-11T07:19:04.987Z,102721.53
2022-10-11T07:21:33.347Z,102731.06
2022-10-11T07:24:00.623Z,102742.63
2022-10-11T07:26:28.312Z,102729.38
2022-10-11T07:28:55.304Z,102730.56
2022-10-11T07:31:25.694Z,102709.72
2022-10-11T07:33:52.739Z,102738.19
2022-10-11T07:36:20.107Z,102729.81
2022-10-11T07:38:47.515Z,102734.38
2022-10-11T07:41:14.609Z,102739.16
2022-10-11T07:43:43.259Z,102737.72
2022-10-11T07:46:10.967Z,102747.69
2022-10-11T07:48:38.077Z,102749.84
2022-10-11T07:51:07.703Z,102754.47
2022-10-11T07:54:07.766Z,102752.38
2022-10-11T07:56:34.854Z,102713.28
2022-10-11T07:59:04.460Z,102747.94
2022-10-11T08:01:31.779Z,102729.88
2022-10-11T08:03:58.890Z,102726.78
2022-10-11T08:06:30.209Z,102742.34
2022-10-11T08:08:58.431Z,102750.53
2022-10-11T08:11:27.799Z,102754.28
2022-10-11T08:13:54.914Z,102751.16
2022-10-11T08:16:21.980Z,102754.97
2022-10-11T08:18:48.788Z,102760.41
2022-10-11T08:21:17.392Z,102751.16
2022-10-11T08:23:44.412Z,102745.50
2022-10-11T08:26:11.184Z,102742.16
2022-10-11T08:28:38.007Z,102741.47
2022-10-11T08:31:04.948Z,102749.66
2022-10-11T08:33:31.862Z,102761.31
2022-10-11T08:35:58.493Z,102755.63
2022-10-11T08:38:24.994Z,102760.38
2022-10-11T08:40:53.827Z,102757.28
2022-10-11T08:43:41.139Z,102712.03
2022-10-11T08:46:08.425Z,102759.63
2022-10-11T08:48:38.435Z,102747.66
2022-10-11T08:51:15.428Z,102757.56
2022-10-11T08:53:57.953Z,102763.19
2022-10-11T08:56:26.359Z,102760.00
2022-10-11T08:59:03.213Z,102748.03
2022-10-11T09:01:31.568Z,102758.94
2022-10-11T09:04:00.129Z,102760.19
2022-10-11T09:07:02.600Z,102766.66
2022-10-11T09:10:00.647Z,102734.78
2022-10-11T09:12:30.971Z,102769.28
2022-10-11T09:15:20.444Z,102759.31
2022-10-11T09:17:56.051Z,102749.56
2022-10-11T09:20:34.510Z,102750.03
2022-10-11T09:23:52.115Z,102748.88
2022-10-11T09:26:35.280Z,102738.97
2022-10-11T09:29:18.762Z,102737.63
2022-10-11T09:31:53.831Z,102725.75
2022-10-11T09:34:24.196Z,102736.59
2022-10-11T09:36:57.872Z,102736.97
2022-10-11T09:39:36.571Z,102728.50
2022-10-11T09:42:11.579Z,102735.66
2022-10-11T09:44:39.991Z,102743.69
2022-10-11T09:47:13.354Z,102741.25
2022-10-11T09:49:49.250Z,102728.31
2022-10-11T09:52:18.396Z,102748.47
2022-10-11T09:54:49.766Z,102734.59
2022-10-11T09:57:23.382Z,102751.25
2022-10-11T10:00:00.784Z,102748.63
2022-10-11T10:02:30.172Z,102754.72
2022-10-11T10:05:14.214Z,102746.84
2022-10-11T10:08:01.660Z,102751.13
2022-10-11T10:10:59.137Z,102748.44
2022-10-11T10:13:51.456Z,102742.22
2022-10-11T10:16:30.807Z,102740.31
2022-10-11T10:19:03.573Z,102746.28
2022-10-11T10:21:34.016Z,102726.09
2022-10-11T10:24:05.719Z,102706.78
2022-10-11T10:26:33.405Z,102740.59
2022-10-11T10:29:08.959Z,102743.88
2022-10-11T10:32:13.018Z,102741.97
2022-10-11T10:34:37.809Z,102741.06
2022-10-11T10:37:44.122Z,102747.09
2022-10-11T10:40:21.735Z,102747.06
2022-10-11T10:42:49.809Z,102733.00
2022-10-11T10:45:21.398Z,102731.09
2022-10-11T10:48:15.362Z,102732.56
2022-10-11T10:50:54.694Z,102721.78
2022-10-11T10:53:40.516Z,102723.34
2022-10-11T10:56:12.315Z,102720.38
2022-10-11T10:58:44.712Z,102723.72
2022-10-11T11:01:25.044Z,102710.41
2022-10-11T11:04:23.891Z,102713.78
2022-10-11T11:06:57.667Z,102711.81
2022-10-11T11:09:53.758Z,102710.63
2022-10-11T11:12:29.091Z,102712.00
2022-10-11T11:15:19.764Z,102696.94
2022-10-11T11:18:11.714Z,102702.09
2022-10-11T11:21:03.742Z,102697.56
2022-10-11T11:23:49.392Z,102695.72
2022-10-11T11:26:44.554Z,102688.72
2022-10-11T11:29:26.062Z,102693.13
2022-10-11T11:32:15.312Z,102687.91
2022-10-11T11:34:47.020Z,102687.13
2022-10-11T11:37:26.514Z,102649.59
2022-10-11T11:39:59.657Z,102678.22
2022-10-11T11:42:49.624Z,102671.13
2022-10-11T11:45:22.602Z,102667.59
2022-10-11T11:47:56.810Z,102667.69
2022-10-11T11:50:25.159Z,102670.47
2022-10-11T11:52:55.829Z,102646.25
2022-10-11T11:55:33.314Z,102660.03
2022-10-11T11:58:38.607Z,102650.47
2022-10-11T12:01:17.493Z,102645.19
2022-10-11T12:03:51.406Z,102647.75
2022-10-11T12:06:23.009Z,102652.16
2022-10-11T12:09:32.306Z,102651.47
2022-10-11T12:12:01.276Z,102647.34
2022-10-11T12:14:37.663Z,102653.69
2022-10-11T12:17:18.664Z,102649.41
2022-10-11T12:20:41.559Z,102646.88
2022-10-11T12:23:30.134Z,102651.38
2022-10-11T12:26:27.449Z,102645.44
2022-10-11T12:29:04.451Z,102642.16
2022-10-11T12:31:36.445Z,102628.38
2022-10-11T12:34:09.036Z,102638.81
2022-10-11T12:36:40.435Z,102629.28
2022-10-11T12:39:22.714Z,102628.59
2022-10-11T12:41:53.697Z,102641.16
2022-10-11T12:44:28.619Z,102631.88
2022-10-11T12:46:55.052Z,102628.66
2022-10-11T12:49:33.620Z,102640.28
2022-10-11T12:52:24.809Z,102631.72
2022-10-11T12:55:04.488Z,102628.41
2022-10-11T12:57:49.817Z,102627.53
2022-10-11T13:00:20.651Z,102612.78
2022-10-11T13:02:48.927Z,102604.19
2022-10-11T13:05:18.516Z,102615.59
2022-10-11T13:07:46.297Z,102603.38
2022-10-11T13:10:36.033Z,102601.66
2022-10-11T13:13:04.522Z,102579.03
2022-10-11T13:15:31.506Z,102573.00
2022-10-11T13:18:02.435Z,102595.63
2022-10-11T13:20:36.283Z,102583.44
2022-10-11T13:23:35.952Z,102582.56
2022-10-11T13:26:02.568Z,102590.50
2022-10-11T13:28:35.562Z,102558.31
2022-10-11T13:31:04.406Z,102580.03
2022-10-11T13:33:35.370Z,102578.34
2022-10-11T13:36:04.573Z,102571.41
2022-10-11T13:38:36.870Z,102571.44
2022-10-11T13:41:07.155Z,102562.75
2022-10-11T13:43:34.157Z,102538.34
2022-10-11T13:46:04.882Z,102570.56
2022-10-11T13:48:32.338Z,102562.72
2022-10-11T13:51:16.894Z,102567.94
2022-10-11T13:54:08.462Z,102572.28
2022-10-11T13:56:51.384Z,102573.16
2022-10-11T13:59:22.096Z,102559.19
2022-10-11T14:01:50.427Z,102560.94
2022-10-11T14:04:17.498Z,102556.59
2022-10-11T14:06:53.495Z,102557.44
2022-10-11T14:09:34.181Z,102557.44
2022-10-11T14:12:31.146Z,102550.41
2022-10-11T14:14:59.589Z,102530.31
2022-10-11T14:17:42.522Z,102494.66
2022-10-11T14:20:30.876Z,102544.16
2022-10-11T14:23:00.096Z,102527.47
2022-10-11T14:25:26.864Z,102526.56
2022-10-11T14:27:54.605Z,102523.88
2022-10-11T14:30:26.209Z,102520.34
2022-10-11T14:32:56.068Z,102508.97
2022-10-11T14:35:28.161Z,102473.25
2022-10-11T14:37:54.855Z,102502.66
2022-10-11T14:40:24.310Z,102519.84
2022-10-11T14:42:51.085Z,102510.03
2022-10-11T14:45:17.881Z,102516.78
2022-10-11T14:47:45.158Z,102485.19
2022-10-11T14:50:45.732Z,102501.31
2022-10-11T14:53:12.503Z,102473.25
2022-10-11T14:55:40.615Z,102496.31
2022-10-11T14:58:08.968Z,102488.25
2022-10-11T15:00:36.961Z,102496.69
2022-10-11T15:03:05.223Z,102459.09
2022-10-11T15:05:34.194Z,102475.47
2022-10-11T15:08:02.285Z,102482.47
2022-10-11T15:10:42.047Z,102488.59
2022-10-11T15:13:08.930Z,102487.72
2022-10-11T15:15:37.782Z,102481.56
2022-10-11T15:18:07.032Z,102455.28
2022-10-11T15:20:39.207Z,102464.50
2022-10-11T15:23:07.785Z,102468.53
2022-10-11T15:25:34.639Z,102443.28
2022-10-11T15:28:01.632Z,102464.09
2022-10-11T15:30:41.606Z,102455.41
2022-10-11T15:33:09.068Z,102451.19
2022-10-11T15:35:35.696Z,102459.09
2022-10-11T15:38:02.812Z,102455.78
2022-10-11T15:40:35.530Z,102436.88
2022-10-11T15:43:02.461Z,102437.84
2022-10-11T15:45:29.838Z,102432.81
2022-10-11T15:47:56.889Z,102442.63
2022-10-11T15:50:39.272Z,102445.31
2022-10-11T15:53:05.919Z,102446.34
2022-10-11T15:55:34.875Z,102443.00
2022-10-11T15:58:01.842Z,102444.81
2022-10-11T16:00:29.625Z,102443.19
2022-10-11T16:02:57.411Z,102441.59
2022-10-11T16:05:25.979Z,102448.69
2022-10-11T16:07:53.385Z,102453.25
2022-10-11T16:10:21.181Z,102439.59
2022-10-11T16:12:47.710Z,102440.66
2022-10-11T16:15:15.339Z,102443.50
2022-10-11T16:17:41.934Z,102434.09
2022-10-11T16:20:09.266Z,102408.34
2022-10-11T16:22:36.624Z,102444.13
2022-10-11T16:25:04.482Z,102446.00
2022-10-11T16:27:31.466Z,102447.09
2022-10-11T16:29:58.325Z,102438.53
2022-10-11T16:32:25.399Z,102416.97
2022-10-11T16:34:51.898Z,102430.09
2022-10-11T16:37:18.940Z,102434.63
2022-10-11T16:39:46.361Z,102433.88
2022-10-11T16:42:12.903Z,102435.75
2022-10-11T16:44:39.490Z,102423.75
2022-10-11T16:47:06.618Z,102406.50
2022-10-11T16:49:33.374Z,102442.16
2022-10-11T16:52:02.259Z,102439.66
2022-10-11T16:54:30.484Z,102438.00
2022-10-11T16:56:58.414Z,102436.31
2022-10-11T16:59:25.710Z,102438.97
2022-10-11T17:01:52.166Z,102432.94
2022-10-11T17:04:18.911Z,102433.91
2022-10-11T17:06:45.441Z,102424.38
2022-10-11T17:09:12.605Z,102434.81
2022-10-11T17:11:40.626Z,102451.41
2022-10-11T17:14:07.689Z,102435.78
2022-10-11T17:16:35.031Z,102448.88
2022-10-11T17:19:02.590Z,102451.50
2022-10-11T17:21:29.250Z,102442.84
2022-10-11T17:23:56.005Z,102452.41
2022-10-11T17:26:27.858Z,102449.84
2022-10-11T17:28:56.443Z,102441.16
2022-10-11T17:31:24.083Z,102421.97
2022-10-11T17:33:51.302Z,102438.50
2022-10-11T17:36:38.119Z,102447.22
2022-10-11T17:39:11.159Z,102442.88
2022-10-11T17:41:37.685Z,102433.28
2022-10-11T17:44:04.945Z,102438.50
2022-10-11T17:46:34.385Z,102438.47
2022-10-11T17:49:06.728Z,102433.22
2022-10-11T17:51:37.076Z,102436.66
2022-10-11T17:54:04.133Z,102431.44
2022-10-11T17:56:36.607Z,102426.19
2022-10-11T17:59:04.343Z,102441.78
2022-10-11T18:01:30.996Z,102434.78
2022-10-11T18:03:59.903Z,102438.22
2022-10-11T18:06:28.902Z,102436.47
2022-10-11T18:08:57.255Z,102432.94
2022-10-11T18:11:23.885Z,102429.41
2022-10-11T18:13:52.238Z,102435.41
2022-10-11T18:16:21.578Z,102433.63
2022-10-11T18:18:48.283Z,102413.53
2022-10-11T18:21:16.097Z,102428.25
2022-10-11T18:23:42.636Z,102434.31
2022-10-11T18:26:15.078Z,102431.66
2022-10-11T18:28:42.451Z,102430.75
2022-10-11T18:31:15.468Z,102432.41
2022-10-11T18:33:43.336Z,102425.41
2022-10-11T18:36:13.264Z,102427.09
2022-10-11T18:38:43.949Z,102394.75
2022-10-11T18:41:11.548Z,102397.31
2022-10-11T18:43:38.157Z,102424.34
2022-10-11T18:46:04.658Z,102425.16
2022-10-11T18:48:32.650Z,102419.84
2022-10-11T18:51:05.407Z,102414.56
2022-10-11T18:53:33.799Z,102419.75
2022-10-11T18:56:01.723Z,102418.81
2022-10-11T18:58:32.732Z,102428.28
2022-10-11T19:01:15.909Z,102426.47
2022-10-11T19:03:43.483Z,102433.31
2022-10-11T19:06:19.443Z,102424.56
2022-10-11T19:08:53.611Z,102430.56
2022-10-11T19:11:22.212Z,102436.59
2022-10-11T19:13:55.687Z,102432.13
2022-10-11T19:16:22.687Z,102432.09
2022-10-11T19:18:50.127Z,102429.41
2022-10-11T19:21:16.737Z,102422.44
2022-10-11T19:23:45.403Z,102427.59
2022-10-11T19:26:28.836Z,102424.03
2022-10-11T19:29:01.268Z,102425.69
2022-10-11T19:31:28.916Z,102427.38
2022-10-11T19:33:57.195Z,102416.81
2022-10-11T19:36:23.883Z,102422.88
2022-10-11T19:38:51.009Z,102417.56
2022-10-11T19:41:19.633Z,102420.16
2022-10-11T19:43:46.546Z,102414.88
2022-10-11T19:46:20.332Z,102427.84
2022-10-11T19:48:54.456Z,102432.09
2022-10-11T19:51:23.311Z,102426.81
2022-10-11T19:53:55.898Z,102427.63
2022-10-11T19:56:22.571Z,102428.41
2022-10-11T19:58:49.468Z,102423.09
2022-10-11T20:01:26.968Z,102384.63
2022-10-11T20:03:56.575Z,102416.06
2022-10-11T20:06:23.975Z,102414.25
2022-10-11T20:09:10.310Z,102414.25
2022-10-11T20:11:37.451Z,102380.94
2022-10-11T20:14:04.137Z,102421.91
2022-10-11T20:16:30.675Z,102377.44
2022-10-11T20:18:59.240Z,102424.41
2022-10-11T20:21:28.366Z,102420.00
2022-10-11T20:24:01.248Z,102415.59
2022-10-11T20:26:28.825Z,102415.59
2022-10-11T20:28:56.639Z,102425.03
2022-10-11T20:31:32.167Z,102419.78
2022-10-11T20:34:01.935Z,102406.59
2022-10-11T20:36:30.137Z,102404.88
2022-10-11T20:38:57.992Z,102418.72
2022-10-11T20:41:31.553Z,102418.72
2022-10-11T20:43:59.739Z,102412.56
2022-10-11T20:46:29.819Z,102416.94
2022-10-11T20:49:01.953Z,102417.66
2022-10-11T20:51:30.418Z,102411.56
2022-10-11T20:53:58.421Z,102418.47
2022-10-11T20:56:25.011Z,102405.22
2022-10-11T20:58:53.660Z,102420.91
2022-10-11T21:01:22.762Z,102419.09
2022-10-11T21:03:50.342Z,102412.91
2022-10-11T21:06:16.968Z,102425.91
2022-10-11T21:08:43.751Z,102424.97
2022-10-11T21:11:11.115Z,102426.59
2022-10-11T21:13:37.986Z,102409.19
2022-10-11T21:16:07.971Z,102428.28
2022-10-11T21:18:34.575Z,102402.97
2022-10-11T21:21:07.280Z,102425.59
2022-10-11T21:23:34.534Z,102435.91
2022-10-11T21:26:06.857Z,102379.13
2022-10-11T21:28:33.733Z,102425.31
2022-10-11T21:31:08.600Z,102422.56
2022-10-11T21:33:35.594Z,102432.16
2022-10-11T21:36:14.324Z,102409.31
2022-10-11T21:38:41.231Z,102410.16
2022-10-11T21:41:11.489Z,102429.31
2022-10-11T21:43:38.959Z,102432.00
2022-10-11T21:46:10.646Z,102422.34
2022-10-11T21:48:37.244Z,102433.63
2022-10-11T21:51:04.275Z,102422.41
2022-10-11T21:53:30.923Z,102425.78
2022-10-11T21:55:58.497Z,102425.78
2022-10-11T21:58:25.231Z,102393.47
2022-10-11T22:00:52.305Z,102423.09
2022-10-11T22:03:19.026Z,102405.53
2022-10-11T22:05:46.979Z,102416.91
2022-10-11T22:08:14.551Z,102430.84
2022-10-11T22:10:51.692Z,102430.75
2022-10-11T22:13:18.205Z,102408.25
2022-10-11T22:15:44.733Z,102417.72
2022-10-11T22:18:11.495Z,102422.81
2022-10-11T22:20:37.974Z,102421.94
2022-10-11T22:23:04.598Z,102417.47
2022-10-11T22:25:31.104Z,102406.13
2022-10-11T22:27:57.721Z,102418.31
2022-10-11T22:30:24.207Z,102414.88
2022-10-11T22:32:51.480Z,102415.72
2022-10-11T22:35:18.793Z,102405.22
2022-10-11T22:37:45.625Z,102400.81
2022-10-11T22:40:12.535Z,102402.47
2022-10-11T22:42:39.044Z,102385.06
2022-10-11T22:45:05.877Z,102395.53
2022-10-11T22:47:32.418Z,102398.00
2022-10-11T22:49:58.886Z,102391.84
2022-10-11T22:52:25.433Z,102389.25
2022-10-11T22:54:51.974Z,102393.63
2022-10-11T22:57:18.467Z,102390.97
2022-10-11T22:59:45.090Z,102399.56
2022-10-11T23:02:11.601Z,102390.75
2022-10-11T23:04:38.080Z,102374.09
2022-10-11T23:07:05.248Z,102364.47
2022-10-11T23:09:31.915Z,102381.16
2022-10-11T23:11:59.245Z,102392.38
2022-10-11T23:14:25.785Z,102384.53
2022-10-11T23:16:53.139Z,102392.28
2022-10-11T23:19:19.794Z,102350.47
2022-10-11T23:21:46.818Z,102370.44
2022-10-11T23:24:13.429Z,102386.13
2022-10-11T23:26:39.905Z,102382.53
2022-10-11T23:29:06.468Z,102371.28
2022-10-11T23:31:32.984Z,102376.50
2022-10-11T23:33:59.444Z,102381.66
2022-10-11T23:36:26.212Z,102381.63
2022-10-11T23:38:55.153Z,102359.09
2022-10-11T23:41:23.245Z,102366.81
2022-10-11T23:43:49.777Z,102338.94
2022-10-11T23:46:16.735Z,102357.34
2022-10-11T23:48:43.271Z,102356.38
2022-10-11T23:51:10.607Z,102346.75
2022-10-11T23:53:37.318Z,102349.31
2022-10-11T23:56:05.244Z,102355.28
2022-10-11T23:58:31.745Z,102316.75
